Agate, Colorado
Current Conditions -  °F | °C
As of 5:55 PM on Saturday 20 Dec 2014 (Local Time) from KLIC Reporting Station
Broken Clouds Broken Clouds  
Wind Chill: 33°   Ceiling: 10000
Heat Index: 33°   Visibility: 10mi
Dew Point: 18°   Wind: 0mph
Humidity: 54%   Direction: NA
Pressure: 29.96"   Gusts: NA
Location:  39.46°N, 103.94°W
Report Text: KLIC 210055Z AUTO 00000KT 10SM BKN100 01/M08 A2996 RMK AO2 SLP172 T00061078
Loading
Personal Weather Stations






























Interactive Weather Map New forecast layout! Learn more

10-Day Weather Forecast

Advertisements
Track Severe Weather on mobile